NCAR-RAP Real-Time Weather Data

Output produced by METARs form (25 October 2014  11:08 UTC)
found at http://weather.rap.ucar.edu/surface/
 
Conditions at: K4O4 observed 25 October 2014  10:55 UTC
Temperature: 13.0°C (55°F)
Dewpoint: 12.0°C (54°F) [RH = 94%]
Pressure (altimeter): 30.13 inches Hg (1020.4 mb)
Winds: calm
Visibility: 5 miles (8 km)
Ceiling: at least 12,000 feet AGL
Clouds: sky clear below 12,000 feet AGL
Present Weather: automated observation with no human augmentation;
there may or may not be significant weather present at this time
K4O4 251055Z AUTO 00000KT 5SM CLR 13/12 A3013 RMK AO2